Pagrindinis puslapis
METAR-TAF:

METAR-TAF

Oro uostai :

Roskildė, Danija

platuma: 55-35N, ilguma: 012-08E, Aukštis: 44 m

Dabartinis oras

Ataskaita buvo paskelbta 49 minutes, ne 18:50 UTC
Vėjas 12 kt iš Rytų/Pietryčių
Temperatūra 14°C
Drėgmė 82%
Slėgis 1010 hPa
Matomumas 10 km arba daugiau

METAR: EKRK 141850Z AUTO 12012KT 9999 NCD 14/11 Q1010

Laikas: 21:39 (19:39 UTC)

Prognozė

Ataskaita buvo paskelbta 2 valandos ir 33 minutes, ne 17:06 UTC
Prognozė galioja nuo 14 metu 18 UTC su 15 metu 03 UTC
Vėjas 12 kt iš Pietryčių
Matomumas 10 km arba daugiau
nėra debesų žemiau 1500 m ir nėra kamuolinių lietaus debesų

TAF: EKRK 141706Z 1418/1503 13012KT CAVOK

Orai ataskaitas ir orų prognozės (METAR, TAF).

turimą stotys yra geltonos ir raudonos taškus žemėlapyje.

Perkelti pele per norėdami pamatyti stoties vardą.

Tada spustelėkite, norėdami matyti oro stebėjimo ir prognozės.

Norėdami pakeisti žemėlapį: spustelėkite ant žalios mygtukų su juodo kryžiaus žemyn,; žalią mygtuką su brūkšneliu, jei norite nutolinti; arba žalių rodyklių gretimoms žemėlapius.


METAR-TAF: